sensor_id;sensor_type;location;lat;lon;timestamp;temperature;humidity
47174;DHT22;36730;49.036;9.094;2023-09-08T00:00:29;27.10;63.80
47174;DHT22;36730;49.036;9.094;2023-09-08T00:02:55;27.10;63.80
47174;DHT22;36730;49.036;9.094;2023-09-08T00:05:20;27.10;63.80
47174;DHT22;36730;49.036;9.094;2023-09-08T00:07:46;27.10;63.90
47174;DHT22;36730;49.036;9.094;2023-09-08T00:10:11;27.00;64.20
47174;DHT22;36730;49.036;9.094;2023-09-08T00:12:37;27.00;64.20
47174;DHT22;36730;49.036;9.094;2023-09-08T00:15:03;27.00;64.10
47174;DHT22;36730;49.036;9.094;2023-09-08T00:17:28;27.00;63.90
47174;DHT22;36730;49.036;9.094;2023-09-08T00:19:54;26.90;63.80
47174;DHT22;36730;49.036;9.094;2023-09-08T00:22:19;26.90;63.90
47174;DHT22;36730;49.036;9.094;2023-09-08T00:24:45;26.90;64.00
47174;DHT22;36730;49.036;9.094;2023-09-08T00:27:10;26.80;64.00
47174;DHT22;36730;49.036;9.094;2023-09-08T00:29:36;26.80;64.10
47174;DHT22;36730;49.036;9.094;2023-09-08T00:32:01;26.70;64.00
47174;DHT22;36730;49.036;9.094;2023-09-08T00:34:27;26.70;64.00
47174;DHT22;36730;49.036;9.094;2023-09-08T00:36:52;26.70;64.10
47174;DHT22;36730;49.036;9.094;2023-09-08T00:39:18;26.70;64.10
47174;DHT22;36730;49.036;9.094;2023-09-08T00:41:43;26.70;64.20
47174;DHT22;36730;49.036;9.094;2023-09-08T00:44:08;26.70;64.20
47174;DHT22;36730;49.036;9.094;2023-09-08T00:46:34;26.70;64.20
47174;DHT22;36730;49.036;9.094;2023-09-08T00:49:00;26.70;64.20
47174;DHT22;36730;49.036;9.094;2023-09-08T00:51:26;26.70;64.20
47174;DHT22;36730;49.036;9.094;2023-09-08T00:53:51;26.60;64.20
47174;DHT22;36730;49.036;9.094;2023-09-08T00:56:16;26.60;64.20
47174;DHT22;36730;49.036;9.094;2023-09-08T00:58:43;26.60;64.40
47174;DHT22;36730;49.036;9.094;2023-09-08T01:01:08;26.50;65.00
47174;DHT22;36730;49.036;9.094;2023-09-08T01:03:34;26.50;64.30
47174;DHT22;36730;49.036;9.094;2023-09-08T01:05:59;26.50;64.40
47174;DHT22;36730;49.036;9.094;2023-09-08T01:08:25;26.50;64.50
47174;DHT22;36730;49.036;9.094;2023-09-08T01:10:51;26.50;64.50
47174;DHT22;36730;49.036;9.094;2023-09-08T01:13:17;26.50;64.50
47174;DHT22;36730;49.036;9.094;2023-09-08T01:15:42;26.50;64.60
47174;DHT22;36730;49.036;9.094;2023-09-08T01:18:07;26.40;64.60
47174;DHT22;36730;49.036;9.094;2023-09-08T01:20:35;26.40;64.70
47174;DHT22;36730;49.036;9.094;2023-09-08T01:25:32;26.50;64.70
47174;DHT22;36730;49.036;9.094;2023-09-08T01:28:00;26.50;64.60
47174;DHT22;36730;49.036;9.094;2023-09-08T01:30:28;26.50;64.40
47174;DHT22;36730;49.036;9.094;2023-09-08T01:32:54;26.50;64.30
47174;DHT22;36730;49.036;9.094;2023-09-08T01:35:19;26.60;64.40
47174;DHT22;36730;49.036;9.094;2023-09-08T01:37:46;26.50;64.30
47174;DHT22;36730;49.036;9.094;2023-09-08T01:40:11;26.50;64.40
47174;DHT22;36730;49.036;9.094;2023-09-08T01:42:37;26.50;64.40
47174;DHT22;36730;49.036;9.094;2023-09-08T01:45:03;26.60;64.20
47174;DHT22;36730;49.036;9.094;2023-09-08T01:47:29;26.60;64.20
47174;DHT22;36730;49.036;9.094;2023-09-08T01:49:54;26.60;64.10
47174;DHT22;36730;49.036;9.094;2023-09-08T01:52:20;26.60;64.20
47174;DHT22;36730;49.036;9.094;2023-09-08T01:54:45;26.60;64.00
47174;DHT22;36730;49.036;9.094;2023-09-08T01:57:11;26.50;64.00
47174;DHT22;36730;49.036;9.094;2023-09-08T01:59:36;26.50;64.20
47174;DHT22;36730;49.036;9.094;2023-09-08T02:02:05;26.50;64.80
47174;DHT22;36730;49.036;9.094;2023-09-08T02:04:30;26.50;64.60
47174;DHT22;36730;49.036;9.094;2023-09-08T02:06:56;26.40;64.40
47174;DHT22;36730;49.036;9.094;2023-09-08T02:09:21;26.40;64.40
47174;DHT22;36730;49.036;9.094;2023-09-08T02:11:47;26.50;64.20
47174;DHT22;36730;49.036;9.094;2023-09-08T02:14:12;26.50;64.30
47174;DHT22;36730;49.036;9.094;2023-09-08T02:16:38;26.40;64.20
47174;DHT22;36730;49.036;9.094;2023-09-08T02:19:05;26.40;64.10
47174;DHT22;36730;49.036;9.094;2023-09-08T02:21:30;26.40;64.20
47174;DHT22;36730;49.036;9.094;2023-09-08T02:23:55;26.50;64.80
47174;DHT22;36730;49.036;9.094;2023-09-08T02:26:21;26.40;64.00
47174;DHT22;36730;49.036;9.094;2023-09-08T02:28:46;26.40;64.20
47174;DHT22;36730;49.036;9.094;2023-09-08T02:31:12;26.40;64.10
47174;DHT22;36730;49.036;9.094;2023-09-08T02:33:37;26.40;64.10
47174;DHT22;36730;49.036;9.094;2023-09-08T02:36:06;26.40;64.60
47174;DHT22;36730;49.036;9.094;2023-09-08T02:38:32;26.40;64.00
47174;DHT22;36730;49.036;9.094;2023-09-08T02:40:57;26.30;64.00
47174;DHT22;36730;49.036;9.094;2023-09-08T02:43:22;26.40;64.10
47174;DHT22;36730;49.036;9.094;2023-09-08T02:45:49;26.30;63.90
47174;DHT22;36730;49.036;9.094;2023-09-08T02:48:14;26.30;64.00
47174;DHT22;36730;49.036;9.094;2023-09-08T02:50:40;26.30;64.00
47174;DHT22;36730;49.036;9.094;2023-09-08T02:53:05;26.30;64.00
47174;DHT22;36730;49.036;9.094;2023-09-08T02:55:30;26.30;64.10
47174;DHT22;36730;49.036;9.094;2023-09-08T02:57:56;26.30;64.10
47174;DHT22;36730;49.036;9.094;2023-09-08T03:00:22;26.30;63.90
47174;DHT22;36730;49.036;9.094;2023-09-08T03:02:47;26.30;63.90
47174;DHT22;36730;49.036;9.094;2023-09-08T03:05:12;26.30;63.50
47174;DHT22;36730;49.036;9.094;2023-09-08T03:07:38;26.20;62.80
47174;DHT22;36730;49.036;9.094;2023-09-08T03:10:04;26.00;62.90
47174;DHT22;36730;49.036;9.094;2023-09-08T03:12:30;25.80;63.20
47174;DHT22;36730;49.036;9.094;2023-09-08T03:14:55;25.70;63.30
47174;DHT22;36730;49.036;9.094;2023-09-08T03:17:21;25.50;63.60
47174;DHT22;36730;49.036;9.094;2023-09-08T03:19:46;25.40;64.00
47174;DHT22;36730;49.036;9.094;2023-09-08T03:22:12;25.30;64.20
47174;DHT22;36730;49.036;9.094;2023-09-08T03:24:37;25.10;64.50
47174;DHT22;36730;49.036;9.094;2023-09-08T03:27:03;25.00;64.90
47174;DHT22;36730;49.036;9.094;2023-09-08T03:29:28;24.90;64.90
47174;DHT22;36730;49.036;9.094;2023-09-08T03:31:54;24.80;65.40
47174;DHT22;36730;49.036;9.094;2023-09-08T03:34:19;24.80;65.70
47174;DHT22;36730;49.036;9.094;2023-09-08T03:36:46;24.70;65.70
47174;DHT22;36730;49.036;9.094;2023-09-08T03:39:12;24.60;65.90
47174;DHT22;36730;49.036;9.094;2023-09-08T03:41:37;24.60;66.10
47174;DHT22;36730;49.036;9.094;2023-09-08T03:44:03;24.50;66.10
47174;DHT22;36730;49.036;9.094;2023-09-08T03:46:28;24.50;66.20
47174;DHT22;36730;49.036;9.094;2023-09-08T03:48:54;24.40;66.30
47174;DHT22;36730;49.036;9.094;2023-09-08T03:51:24;24.40;66.20
47174;DHT22;36730;49.036;9.094;2023-09-08T03:53:49;24.40;66.40
47174;DHT22;36730;49.036;9.094;2023-09-08T03:56:15;24.30;66.40
47174;DHT22;36730;49.036;9.094;2023-09-08T03:58:40;24.20;66.90
47174;DHT22;36730;49.036;9.094;2023-09-08T04:01:05;24.20;66.90
47174;DHT22;36730;49.036;9.094;2023-09-08T04:03:31;24.10;66.90
47174;DHT22;36730;49.036;9.094;2023-09-08T04:05:56;24.10;67.20
47174;DHT22;36730;49.036;9.094;2023-09-08T04:08:22;24.10;67.50
47174;DHT22;36730;49.036;9.094;2023-09-08T04:10:47;24.00;67.90
47174;DHT22;36730;49.036;9.094;2023-09-08T04:13:13;23.90;68.10
47174;DHT22;36730;49.036;9.094;2023-09-08T04:15:38;23.90;68.40
47174;DHT22;36730;49.036;9.094;2023-09-08T04:18:03;23.80;69.00
47174;DHT22;36730;49.036;9.094;2023-09-08T04:20:29;23.80;70.20
47174;DHT22;36730;49.036;9.094;2023-09-08T04:22:54;23.80;69.90
47174;DHT22;36730;49.036;9.094;2023-09-08T04:25:20;23.70;70.40
47174;DHT22;36730;49.036;9.094;2023-09-08T04:27:46;23.70;71.20
47174;DHT22;36730;49.036;9.094;2023-09-08T04:30:12;23.60;71.30
47174;DHT22;36730;49.036;9.094;2023-09-08T04:32:37;23.60;72.20
47174;DHT22;36730;49.036;9.094;2023-09-08T04:35:03;23.60;72.30
47174;DHT22;36730;49.036;9.094;2023-09-08T04:37:29;23.50;72.80
47174;DHT22;36730;49.036;9.094;2023-09-08T04:39:56;23.50;72.70
47174;DHT22;36730;49.036;9.094;2023-09-08T04:42:21;23.50;72.90
47174;DHT22;36730;49.036;9.094;2023-09-08T04:44:48;23.40;73.20
47174;DHT22;36730;49.036;9.094;2023-09-08T04:47:14;23.40;73.70
47174;DHT22;36730;49.036;9.094;2023-09-08T04:49:39;23.30;74.00
47174;DHT22;36730;49.036;9.094;2023-09-08T04:52:05;23.30;73.80
47174;DHT22;36730;49.036;9.094;2023-09-08T04:54:30;23.20;74.70
47174;DHT22;36730;49.036;9.094;2023-09-08T04:56:57;23.20;75.50
47174;DHT22;36730;49.036;9.094;2023-09-08T04:59:22;23.20;74.40
47174;DHT22;36730;49.036;9.094;2023-09-08T05:01:48;23.10;75.40
47174;DHT22;36730;49.036;9.094;2023-09-08T05:04:16;23.10;77.00
47174;DHT22;36730;49.036;9.094;2023-09-08T05:06:41;23.00;75.30
47174;DHT22;36730;49.036;9.094;2023-09-08T05:09:07;23.00;76.50
47174;DHT22;36730;49.036;9.094;2023-09-08T05:11:32;23.00;77.00
47174;DHT22;36730;49.036;9.094;2023-09-08T05:13:57;22.90;77.20
47174;DHT22;36730;49.036;9.094;2023-09-08T05:16:23;22.90;76.40
47174;DHT22;36730;49.036;9.094;2023-09-08T05:19:02;22.90;76.90
47174;DHT22;36730;49.036;9.094;2023-09-08T05:21:28;22.80;76.60
47174;DHT22;36730;49.036;9.094;2023-09-08T05:23:53;22.80;76.70
47174;DHT22;36730;49.036;9.094;2023-09-08T05:26:20;22.90;77.30
47174;DHT22;36730;49.036;9.094;2023-09-08T05:28:45;22.90;77.40
47174;DHT22;36730;49.036;9.094;2023-09-08T05:31:11;22.90;78.30
47174;DHT22;36730;49.036;9.094;2023-09-08T05:33:36;22.80;77.80
47174;DHT22;36730;49.036;9.094;2023-09-08T05:36:02;22.80;76.60
47174;DHT22;36730;49.036;9.094;2023-09-08T05:38:27;22.90;76.70
47174;DHT22;36730;49.036;9.094;2023-09-08T05:40:54;22.80;76.90
47174;DHT22;36730;49.036;9.094;2023-09-08T05:43:19;22.90;77.40
47174;DHT22;36730;49.036;9.094;2023-09-08T05:45:45;22.90;77.80
47174;DHT22;36730;49.036;9.094;2023-09-08T05:48:10;22.90;77.90
47174;DHT22;36730;49.036;9.094;2023-09-08T05:50:36;22.90;78.40
47174;DHT22;36730;49.036;9.094;2023-09-08T05:53:01;22.90;77.90
47174;DHT22;36730;49.036;9.094;2023-09-08T05:55:27;22.90;78.30
47174;DHT22;36730;49.036;9.094;2023-09-08T05:57:52;22.90;77.80
47174;DHT22;36730;49.036;9.094;2023-09-08T06:00:18;22.90;77.70
47174;DHT22;36730;49.036;9.094;2023-09-08T06:02:43;22.90;77.30
47174;DHT22;36730;49.036;9.094;2023-09-08T06:05:09;22.90;77.00
47174;DHT22;36730;49.036;9.094;2023-09-08T06:07:34;22.90;78.80
47174;DHT22;36730;49.036;9.094;2023-09-08T06:10:00;22.80;77.60
47174;DHT22;36730;49.036;9.094;2023-09-08T06:12:25;22.80;78.10
47174;DHT22;36730;49.036;9.094;2023-09-08T06:14:51;22.80;77.80
47174;DHT22;36730;49.036;9.094;2023-09-08T06:17:16;22.80;78.80
47174;DHT22;36730;49.036;9.094;2023-09-08T06:19:41;22.80;78.90
47174;DHT22;36730;49.036;9.094;2023-09-08T06:22:07;22.90;79.20
47174;DHT22;36730;49.036;9.094;2023-09-08T06:24:32;22.90;79.90
47174;DHT22;36730;49.036;9.094;2023-09-08T06:26:58;22.90;80.50
47174;DHT22;36730;49.036;9.094;2023-09-08T06:29:23;22.90;79.60
47174;DHT22;36730;49.036;9.094;2023-09-08T06:31:49;22.90;80.80
47174;DHT22;36730;49.036;9.094;2023-09-08T06:34:14;23.00;80.70
47174;DHT22;36730;49.036;9.094;2023-09-08T06:36:40;23.00;80.40
47174;DHT22;36730;49.036;9.094;2023-09-08T06:39:05;23.00;80.90
47174;DHT22;36730;49.036;9.094;2023-09-08T06:41:31;23.00;80.00
47174;DHT22;36730;49.036;9.094;2023-09-08T06:43:56;23.00;80.70
47174;DHT22;36730;49.036;9.094;2023-09-08T06:46:21;23.00;80.50
47174;DHT22;36730;49.036;9.094;2023-09-08T06:48:47;23.10;80.40
47174;DHT22;36730;49.036;9.094;2023-09-08T06:51:12;23.10;80.80
47174;DHT22;36730;49.036;9.094;2023-09-08T06:53:38;23.10;81.60
47174;DHT22;36730;49.036;9.094;2023-09-08T06:56:03;23.10;81.20
47174;DHT22;36730;49.036;9.094;2023-09-08T06:58:29;23.10;81.30
47174;DHT22;36730;49.036;9.094;2023-09-08T07:00:54;23.20;81.00
47174;DHT22;36730;49.036;9.094;2023-09-08T07:03:20;23.20;81.10
47174;DHT22;36730;49.036;9.094;2023-09-08T07:05:47;23.20;81.50
47174;DHT22;36730;49.036;9.094;2023-09-08T07:08:13;23.20;80.40
47174;DHT22;36730;49.036;9.094;2023-09-08T07:10:38;23.20;80.10
47174;DHT22;36730;49.036;9.094;2023-09-08T07:13:04;23.30;80.90
47174;DHT22;36730;49.036;9.094;2023-09-08T07:15:29;23.30;80.00
47174;DHT22;36730;49.036;9.094;2023-09-08T07:17:55;23.30;80.80
47174;DHT22;36730;49.036;9.094;2023-09-08T07:20:20;23.30;80.10
47174;DHT22;36730;49.036;9.094;2023-09-08T07:22:46;23.40;82.60
47174;DHT22;36730;49.036;9.094;2023-09-08T07:25:12;23.40;81.30
47174;DHT22;36730;49.036;9.094;2023-09-08T07:27:37;23.40;80.60
47174;DHT22;36730;49.036;9.094;2023-09-08T07:30:03;23.50;80.10
47174;DHT22;36730;49.036;9.094;2023-09-08T07:32:29;23.50;80.40
47174;DHT22;36730;49.036;9.094;2023-09-08T07:34:54;23.50;80.70
47174;DHT22;36730;49.036;9.094;2023-09-08T07:37:23;23.60;81.10
47174;DHT22;36730;49.036;9.094;2023-09-08T07:39:49;23.60;80.80
47174;DHT22;36730;49.036;9.094;2023-09-08T07:42:15;23.60;80.80
47174;DHT22;36730;49.036;9.094;2023-09-08T07:44:40;23.60;81.00
47174;DHT22;36730;49.036;9.094;2023-09-08T07:47:06;23.60;80.60
47174;DHT22;36730;49.036;9.094;2023-09-08T07:49:34;23.70;80.70
47174;DHT22;36730;49.036;9.094;2023-09-08T07:52:00;23.70;80.00
47174;DHT22;36730;49.036;9.094;2023-09-08T07:54:25;23.80;80.20
47174;DHT22;36730;49.036;9.094;2023-09-08T07:56:51;23.80;80.10
47174;DHT22;36730;49.036;9.094;2023-09-08T07:59:16;23.80;80.00
47174;DHT22;36730;49.036;9.094;2023-09-08T08:01:42;23.80;79.60
47174;DHT22;36730;49.036;9.094;2023-09-08T08:04:08;23.90;79.20
47174;DHT22;36730;49.036;9.094;2023-09-08T08:06:33;24.00;79.00
47174;DHT22;36730;49.036;9.094;2023-09-08T08:08:59;23.90;78.60
47174;DHT22;36730;49.036;9.094;2023-09-08T08:11:24;24.00;78.60
47174;DHT22;36730;49.036;9.094;2023-09-08T08:13:50;24.00;78.50
47174;DHT22;36730;49.036;9.094;2023-09-08T08:16:16;24.10;79.20
47174;DHT22;36730;49.036;9.094;2023-09-08T08:18:41;24.10;78.70
47174;DHT22;36730;49.036;9.094;2023-09-08T08:21:07;24.10;78.60
47174;DHT22;36730;49.036;9.094;2023-09-08T08:23:33;24.20;78.80
47174;DHT22;36730;49.036;9.094;2023-09-08T08:25:59;24.20;79.20
47174;DHT22;36730;49.036;9.094;2023-09-08T08:28:24;24.30;78.90
47174;DHT22;36730;49.036;9.094;2023-09-08T08:30:50;24.30;79.40
47174;DHT22;36730;49.036;9.094;2023-09-08T08:33:16;24.40;78.20
47174;DHT22;36730;49.036;9.094;2023-09-08T08:35:46;24.40;78.50
47174;DHT22;36730;49.036;9.094;2023-09-08T08:38:13;24.40;78.60
47174;DHT22;36730;49.036;9.094;2023-09-08T08:40:38;24.50;78.90
47174;DHT22;36730;49.036;9.094;2023-09-08T08:43:04;24.60;77.40
47174;DHT22;36730;49.036;9.094;2023-09-08T08:45:30;24.60;77.20
47174;DHT22;36730;49.036;9.094;2023-09-08T08:47:56;24.60;76.90
47174;DHT22;36730;49.036;9.094;2023-09-08T08:50:21;24.70;76.70
47174;DHT22;36730;49.036;9.094;2023-09-08T08:52:47;24.80;76.90
47174;DHT22;36730;49.036;9.094;2023-09-08T08:55:12;24.80;77.00
47174;DHT22;36730;49.036;9.094;2023-09-08T08:57:40;24.80;77.20
47174;DHT22;36730;49.036;9.094;2023-09-08T09:00:10;24.90;77.10
47174;DHT22;36730;49.036;9.094;2023-09-08T09:02:39;24.90;76.90
47174;DHT22;36730;49.036;9.094;2023-09-08T09:05:10;25.00;76.20
47174;DHT22;36730;49.036;9.094;2023-09-08T09:07:36;25.10;76.20
47174;DHT22;36730;49.036;9.094;2023-09-08T09:10:03;25.10;76.20
47174;DHT22;36730;49.036;9.094;2023-09-08T09:12:29;25.20;76.00
47174;DHT22;36730;49.036;9.094;2023-09-08T09:14:54;25.30;75.80
47174;DHT22;36730;49.036;9.094;2023-09-08T09:17:20;25.30;74.90
47174;DHT22;36730;49.036;9.094;2023-09-08T09:19:46;25.40;74.90
47174;DHT22;36730;49.036;9.094;2023-09-08T09:22:11;25.40;75.00
47174;DHT22;36730;49.036;9.094;2023-09-08T09:24:38;25.40;74.80
47174;DHT22;36730;49.036;9.094;2023-09-08T09:27:06;25.50;74.80
47174;DHT22;36730;49.036;9.094;2023-09-08T09:29:32;25.50;74.00
47174;DHT22;36730;49.036;9.094;2023-09-08T09:32:06;25.60;74.10
47174;DHT22;36730;49.036;9.094;2023-09-08T09:34:33;25.60;73.90
47174;DHT22;36730;49.036;9.094;2023-09-08T09:36:59;25.70;73.90
47174;DHT22;36730;49.036;9.094;2023-09-08T09:39:25;25.70;74.10
47174;DHT22;36730;49.036;9.094;2023-09-08T09:41:54;25.90;73.90
47174;DHT22;36730;49.036;9.094;2023-09-08T09:44:20;25.90;73.80
47174;DHT22;36730;49.036;9.094;2023-09-08T09:46:46;26.00;73.40
47174;DHT22;36730;49.036;9.094;2023-09-08T09:49:15;26.00;73.10
47174;DHT22;36730;49.036;9.094;2023-09-08T09:51:45;26.10;72.60
47174;DHT22;36730;49.036;9.094;2023-09-08T09:54:11;26.20;72.70
47174;DHT22;36730;49.036;9.094;2023-09-08T09:56:37;26.20;72.20
47174;DHT22;36730;49.036;9.094;2023-09-08T09:59:03;26.30;72.10
47174;DHT22;36730;49.036;9.094;2023-09-08T10:01:29;26.40;72.10
47174;DHT22;36730;49.036;9.094;2023-09-08T10:03:55;26.50;71.90
47174;DHT22;36730;49.036;9.094;2023-09-08T10:06:20;26.50;71.70
47174;DHT22;36730;49.036;9.094;2023-09-08T10:08:46;26.50;71.60
47174;DHT22;36730;49.036;9.094;2023-09-08T10:11:12;26.60;71.60
47174;DHT22;36730;49.036;9.094;2023-09-08T10:13:42;26.60;71.40
47174;DHT22;36730;49.036;9.094;2023-09-08T10:16:08;26.70;71.20
47174;DHT22;36730;49.036;9.094;2023-09-08T10:18:34;26.80;71.10
47174;DHT22;36730;49.036;9.094;2023-09-08T10:21:00;26.80;71.10
47174;DHT22;36730;49.036;9.094;2023-09-08T10:23:31;26.90;71.00
47174;DHT22;36730;49.036;9.094;2023-09-08T10:25:59;26.90;71.10
47174;DHT22;36730;49.036;9.094;2023-09-08T10:28:27;27.00;70.90
47174;DHT22;36730;49.036;9.094;2023-09-08T10:30:53;27.00;70.80
47174;DHT22;36730;49.036;9.094;2023-09-08T10:33:19;27.10;70.70
47174;DHT22;36730;49.036;9.094;2023-09-08T10:35:44;27.10;70.40
47174;DHT22;36730;49.036;9.094;2023-09-08T10:38:26;27.20;70.30
47174;DHT22;36730;49.036;9.094;2023-09-08T10:41:37;27.20;70.10
47174;DHT22;36730;49.036;9.094;2023-09-08T10:43:37;27.20;70.00
47174;DHT22;36730;49.036;9.094;2023-09-08T10:46:08;27.30;70.40
47174;DHT22;36730;49.036;9.094;2023-09-08T10:48:40;27.40;70.10
47174;DHT22;36730;49.036;9.094;2023-09-08T10:51:05;27.40;69.80
47174;DHT22;36730;49.036;9.094;2023-09-08T10:53:31;27.50;69.80
47174;DHT22;36730;49.036;9.094;2023-09-08T10:55:56;27.60;69.40
47174;DHT22;36730;49.036;9.094;2023-09-08T10:58:35;27.60;70.20
47174;DHT22;36730;49.036;9.094;2023-09-08T11:01:03;27.70;69.70
47174;DHT22;36730;49.036;9.094;2023-09-08T11:06:10;27.80;68.60
47174;DHT22;36730;49.036;9.094;2023-09-08T11:08:37;27.90;68.30
47174;DHT22;36730;49.036;9.094;2023-09-08T11:11:02;27.90;68.70
47174;DHT22;36730;49.036;9.094;2023-09-08T11:13:28;27.90;68.10
47174;DHT22;36730;49.036;9.094;2023-09-08T11:15:54;28.00;68.00
47174;DHT22;36730;49.036;9.094;2023-09-08T11:18:26;28.00;67.80
47174;DHT22;36730;49.036;9.094;2023-09-08T11:20:52;28.10;67.60
47174;DHT22;36730;49.036;9.094;2023-09-08T11:23:17;28.10;67.20
47174;DHT22;36730;49.036;9.094;2023-09-08T11:25:43;28.20;67.50
47174;DHT22;36730;49.036;9.094;2023-09-08T11:28:08;28.20;67.40
47174;DHT22;36730;49.036;9.094;2023-09-08T11:30:34;28.20;67.30
47174;DHT22;36730;49.036;9.094;2023-09-08T11:33:01;28.30;67.00
47174;DHT22;36730;49.036;9.094;2023-09-08T11:35:27;28.30;66.90
47174;DHT22;36730;49.036;9.094;2023-09-08T11:37:52;28.30;67.20
47174;DHT22;36730;49.036;9.094;2023-09-08T11:40:20;28.30;66.90
47174;DHT22;36730;49.036;9.094;2023-09-08T11:42:47;28.40;66.60
47174;DHT22;36730;49.036;9.094;2023-09-08T11:45:13;28.50;66.90
47174;DHT22;36730;49.036;9.094;2023-09-08T11:47:42;28.50;66.60
47174;DHT22;36730;49.036;9.094;2023-09-08T11:50:11;28.60;66.50
47174;DHT22;36730;49.036;9.094;2023-09-08T11:52:41;28.60;67.00
47174;DHT22;36730;49.036;9.094;2023-09-08T11:55:07;28.60;66.50
47174;DHT22;36730;49.036;9.094;2023-09-08T11:57:32;28.60;66.70
47174;DHT22;36730;49.036;9.094;2023-09-08T11:59:59;28.70;66.60
47174;DHT22;36730;49.036;9.094;2023-09-08T12:02:25;28.70;66.20
47174;DHT22;36730;49.036;9.094;2023-09-08T12:04:52;28.80;66.10
47174;DHT22;36730;49.036;9.094;2023-09-08T12:07:18;28.80;65.90
47174;DHT22;36730;49.036;9.094;2023-09-08T12:09:45;28.80;66.00
47174;DHT22;36730;49.036;9.094;2023-09-08T12:12:13;28.90;65.90
47174;DHT22;36730;49.036;9.094;2023-09-08T12:14:42;29.00;65.80
47174;DHT22;36730;49.036;9.094;2023-09-08T12:17:07;29.00;66.30
47174;DHT22;36730;49.036;9.094;2023-09-08T12:19:33;29.00;65.40
47174;DHT22;36730;49.036;9.094;2023-09-08T12:22:01;29.10;65.30
47174;DHT22;36730;49.036;9.094;2023-09-08T12:24:50;29.10;65.00
47174;DHT22;36730;49.036;9.094;2023-09-08T12:27:22;29.10;64.90
47174;DHT22;36730;49.036;9.094;2023-09-08T12:32:19;29.20;64.70
47174;DHT22;36730;49.036;9.094;2023-09-08T12:34:45;29.20;64.60
47174;DHT22;36730;49.036;9.094;2023-09-08T12:37:10;29.30;64.60
47174;DHT22;36730;49.036;9.094;2023-09-08T12:39:38;29.30;64.50
47174;DHT22;36730;49.036;9.094;2023-09-08T12:42:04;29.30;64.30
47174;DHT22;36730;49.036;9.094;2023-09-08T12:44:29;29.40;64.20
47174;DHT22;36730;49.036;9.094;2023-09-08T12:46:55;29.40;64.10
47174;DHT22;36730;49.036;9.094;2023-09-08T12:49:20;29.40;63.90
47174;DHT22;36730;49.036;9.094;2023-09-08T12:51:46;29.40;63.80
47174;DHT22;36730;49.036;9.094;2023-09-08T12:54:11;29.50;63.60
47174;DHT22;36730;49.036;9.094;2023-09-08T12:56:36;29.50;63.50
47174;DHT22;36730;49.036;9.094;2023-09-08T12:59:02;29.60;63.40
47174;DHT22;36730;49.036;9.094;2023-09-08T13:01:28;29.60;63.30
47174;DHT22;36730;49.036;9.094;2023-09-08T13:03:53;29.60;63.00
47174;DHT22;36730;49.036;9.094;2023-09-08T13:06:19;29.60;62.90
47174;DHT22;36730;49.036;9.094;2023-09-08T13:08:44;29.70;62.90
47174;DHT22;36730;49.036;9.094;2023-09-08T13:11:10;29.70;62.60
47174;DHT22;36730;49.036;9.094;2023-09-08T13:13:35;29.70;62.40
47174;DHT22;36730;49.036;9.094;2023-09-08T13:16:01;29.80;62.20
47174;DHT22;36730;49.036;9.094;2023-09-08T13:18:26;29.80;62.60
47174;DHT22;36730;49.036;9.094;2023-09-08T13:20:52;29.80;62.10
47174;DHT22;36730;49.036;9.094;2023-09-08T13:23:17;29.80;61.80
47174;DHT22;36730;49.036;9.094;2023-09-08T13:25:43;29.80;61.20
47174;DHT22;36730;49.036;9.094;2023-09-08T13:28:10;29.90;61.40
47174;DHT22;36730;49.036;9.094;2023-09-08T13:30:35;29.90;61.20
47174;DHT22;36730;49.036;9.094;2023-09-08T13:33:01;29.90;60.80
47174;DHT22;36730;49.036;9.094;2023-09-08T13:35:26;30.00;61.00
47174;DHT22;36730;49.036;9.094;2023-09-08T13:37:52;30.00;60.70
47174;DHT22;36730;49.036;9.094;2023-09-08T13:40:17;30.00;60.40
47174;DHT22;36730;49.036;9.094;2023-09-08T13:42:43;30.00;60.30
47174;DHT22;36730;49.036;9.094;2023-09-08T13:45:08;30.10;60.60
47174;DHT22;36730;49.036;9.094;2023-09-08T13:47:34;30.10;60.50
47174;DHT22;36730;49.036;9.094;2023-09-08T13:50:02;30.10;60.30
47174;DHT22;36730;49.036;9.094;2023-09-08T13:52:27;30.10;60.30
47174;DHT22;36730;49.036;9.094;2023-09-08T13:54:53;30.20;60.10
47174;DHT22;36730;49.036;9.094;2023-09-08T13:57:18;30.20;60.00
47174;DHT22;36730;49.036;9.094;2023-09-08T13:59:46;30.20;60.00
47174;DHT22;36730;49.036;9.094;2023-09-08T14:02:11;30.30;59.80
47174;DHT22;36730;49.036;9.094;2023-09-08T14:04:37;30.30;59.70
47174;DHT22;36730;49.036;9.094;2023-09-08T14:07:05;30.30;59.80
47174;DHT22;36730;49.036;9.094;2023-09-08T14:09:30;30.30;59.70
47174;DHT22;36730;49.036;9.094;2023-09-08T14:11:56;30.30;59.50
47174;DHT22;36730;49.036;9.094;2023-09-08T14:14:21;30.30;59.50
47174;DHT22;36730;49.036;9.094;2023-09-08T14:16:47;30.40;59.50
47174;DHT22;36730;49.036;9.094;2023-09-08T14:19:12;30.40;59.40
47174;DHT22;36730;49.036;9.094;2023-09-08T14:21:38;30.40;59.40
47174;DHT22;36730;49.036;9.094;2023-09-08T14:24:05;30.40;59.30
47174;DHT22;36730;49.036;9.094;2023-09-08T14:26:30;30.40;59.20
47174;DHT22;36730;49.036;9.094;2023-09-08T14:28:56;30.40;59.10
47174;DHT22;36730;49.036;9.094;2023-09-08T14:31:21;30.50;59.10
47174;DHT22;36730;49.036;9.094;2023-09-08T14:33:47;30.50;58.90
47174;DHT22;36730;49.036;9.094;2023-09-08T14:36:16;30.50;58.90
47174;DHT22;36730;49.036;9.094;2023-09-08T14:38:42;30.50;58.80
47174;DHT22;36730;49.036;9.094;2023-09-08T14:41:07;30.50;58.50
47174;DHT22;36730;49.036;9.094;2023-09-08T14:43:32;30.50;58.60
47174;DHT22;36730;49.036;9.094;2023-09-08T14:45:58;30.60;58.80
47174;DHT22;36730;49.036;9.094;2023-09-08T14:48:24;30.60;58.60
47174;DHT22;36730;49.036;9.094;2023-09-08T14:50:50;30.60;58.60
47174;DHT22;36730;49.036;9.094;2023-09-08T14:53:15;30.60;58.50
47174;DHT22;36730;49.036;9.094;2023-09-08T14:55:41;30.60;58.40
47174;DHT22;36730;49.036;9.094;2023-09-08T14:58:09;30.70;59.00
47174;DHT22;36730;49.036;9.094;2023-09-08T15:00:36;30.70;58.30
47174;DHT22;36730;49.036;9.094;2023-09-08T15:03:01;30.70;58.30
47174;DHT22;36730;49.036;9.094;2023-09-08T15:05:30;30.70;58.20
47174;DHT22;36730;49.036;9.094;2023-09-08T15:07:55;30.70;58.10
47174;DHT22;36730;49.036;9.094;2023-09-08T15:10:21;30.70;58.00
47174;DHT22;36730;49.036;9.094;2023-09-08T15:12:46;30.70;57.90
47174;DHT22;36730;49.036;9.094;2023-09-08T15:15:12;30.70;57.90
47174;DHT22;36730;49.036;9.094;2023-09-08T15:17:37;30.80;57.90
47174;DHT22;36730;49.036;9.094;2023-09-08T15:20:03;30.70;57.90
47174;DHT22;36730;49.036;9.094;2023-09-08T15:22:28;30.80;57.90
47174;DHT22;36730;49.036;9.094;2023-09-08T15:24:54;30.80;57.80
47174;DHT22;36730;49.036;9.094;2023-09-08T15:27:19;30.80;57.90
47174;DHT22;36730;49.036;9.094;2023-09-08T15:29:45;30.80;57.70